NCAR-RAP Real-Time Weather Data

Output produced by METARs form (23 January 2018  15:42 UTC)
found at http://weather.rap.ucar.edu/surface/
 
RJOM 231200Z 28017KT 9999 FEW035 BKN050 03/M08 Q1018
RJOM 231100Z 29018KT 9999 FEW035 SCT060 03/M09 Q1018
RJOM 231000Z 29018KT 9999 FEW035 SCT/// 04/M07 Q1017
RJOM 230900Z 27013KT 240V310 9999 FEW015 SCT035 BKN050 05/M05 Q1017
RJOM 230800Z 25008KT 210V290 9999 FEW015 SCT025 BKN035 05/M03 Q1016
RJOM 230700Z 27014KT 9999 VCSH FEW015 SCT025 BKN040 06/M03 Q1016
RJOM 230600Z 27016KT 9999 FEW015 SCT025 BKN040 06/M03 Q1016
RJOM 230511Z 28021G31KT 9000 -SHRA FEW015 SCT025 BKN035 05/M01 Q1016 RMK 1CU015 3CU025 6CU035 A3001
RJOM 230500Z 29023KT 9999 -SHRA FEW015 SCT035 BKN050 05/01 Q1016
RJOM 230400Z 29019KT 9999 FEW015 SCT025 BKN035 07/01 Q1015
RJOM 230308Z 28022G32KT 9999 -SHRA FEW015 SCT025 BKN035 06/01 Q1015 RMK 2CU015 4CU025 6CU035 A3000
RJOM 230300Z 27024KT 9999 -SHRA FEW015 SCT025 BKN035 07/M00 Q1015
RJOM 230200Z 25023KT 9999 FEW020 BKN030 08/02 Q1015
RJOM 230137Z 26021G31KT 9999 VCSH FEW025 BKN035 09/01 Q1015 RMK 1CU025 6CU035 A2999
RJOM 230100Z 28020KT 9999 FEW025 SCT035 10/00 Q1015
RJOM 230000Z 27023KT 9999 FEW025 SCT035 09/00 Q1014
RJOM 222300Z 27020KT 9000 FEW025 SCT035 09/03 Q1014
RJOM 222200Z 26026KT 8000 FEW020 BKN035 09/03 Q1013
RJOM 222116Z 26023G33KT 9999 FEW020 BKN035 10/03 Q1013 RMK 2CU020 6CU035 A2992
RJOM 222110Z 26023KT 9999 FEW020 BKN035 10/04 Q1013 RMK 2CU020 6CU035 A2992
RJOM 221200Z 11008KT 9999 FEW008 03/01 Q1014
RJOM 221100Z 11009KT 9999 FEW008 SCT020 04/01 Q1014
RJOM 221000Z VRB02KT 9999 FEW008 04/01 Q1014
RJOM 220900Z 01006KT 340V040 9999 FEW006 SCT010 04/02 Q1013
RJOM 220800Z 03005KT 9999 FEW008 SCT020 04/02 Q1012
RJOM 220700Z 04009KT 9999 FEW008 SCT020 BKN050 04/02 Q1012
RJOM 220600Z 01016KT 9000 -SHRA FEW005 SCT010 BKN020 04/03 Q1011
RJOM 220519Z 01012G22KT 320V050 8000 -SHRA FEW005 SCT010 BKN020 05/03 Q1011 RMK 1ST005 4ST010 7CU020 A2987
RJOM 220500Z VRB01KT 9999 -SHRA FEW003 SCT010 BKN020 05/03 Q1011
RJOM 220400Z 19003KT 140V250 9999 -SHRA FEW003 SCT010 BKN025 05/03 Q1011
RJOM 220300Z 18003KT 140V210 9999 -SHRA FEW003 SCT010 BKN025 04/02 Q1012
RJOM 220212Z 05003KT 020V080 7000 -SHRA FEW010 SCT015 BKN030 05/02 Q1014 RMK 1ST010 3CU015 6CU030 A2995
RJOM 220200Z 05004KT 6000 SHRA FEW010 SCT015 BKN030 05/03 Q1014
RJOM 220100Z VRB02KT 6000 -RA FEW008 SCT020 BKN040 05/03 Q1015
RJOM 220000Z 06007KT 030V100 6000 -RA FEW020 SCT030 BKN045 05/02 Q1015
RJOM 212300Z 12008KT 6000 -RA FEW020 SCT030 BKN045 06/02 Q1015
RJOM 212200Z 16005KT 9999 -RA FEW025 SCT045 BKN060 07/M01 Q1015
RJOM 212110Z 11004KT 070V130 9999 FEW020 SCT060 BKN080 07/M02 Q1014 RMK 1CU020 4SC060 6AC080 A2996
RJOM 211200Z 02008KT 9999 FEW030 SCT/// 09/M03 Q1020
RJOM 211100Z 05007KT 350V080 9999 FEW030 SCT/// 09/M03 Q1020
RJOM 211000Z 05007KT 9999 FEW030 BKN/// 10/M02 Q1020
RJOM 210900Z 04007KT 9999 FEW030 SCT/// 10/M02 Q1020
RJOM 210800Z 02009KT 9999 FEW035 SCT/// 11/M02 Q1019
RJOM 210700Z 36011KT 9999 FEW030 SCT/// 11/M01 Q1019
RJOM 210600Z 35011KT 9999 FEW030 SCT/// 12/M02 Q1019
RJOM 210500Z 34011KT 9999 FEW030 12/M00 Q1019
RJOM 210400Z 36011KT 9999 FEW030 SCT/// 11/M00 Q1020